Main page
Satellite images 15-day forecastsClimateMarine weather Cyclones Lightning AirportsFAQ Newsletter About
Weather : Europe Africa North America South America Asia Australia-Oceania Others
Languages Contact

Baia Mare, Romania

latitude: 47-40N, longitude: 023-35E, elevation: 218 m


METAR: LRBM 241400Z 09002KT 9999 FEW036 07/00 Q1028
TAF: LRBM 241400Z 2415/2424 VRB04KT CAVOK BECMG 2422/2424 3000 BR

Time: 16:38 (14:38 UTC)

Current weather observation

The report was made 38 minutes ago, at 14:00 UTC
Wind 2 kt from the East
Temperature 7°C
Humidity 61%
Pressure 1028 hPa
Visibility 10 km or more
Few clouds at a height of 3600 ft

Change units

Forecast

The report was made 38 minutes ago, at 14:00 UTC
Forecast valid from 24 at 15 UTC to 24 at 24 UTC
Wind 4 kt from variable directions
Visibility 10 km or more
no clouds below 1500 m and no cumulonimbus
Becoming
from 24 at 22 UTC to 24 at 24 UTC
Visibility: 3000 m
mist
The information on this site is subject to a disclaimer
Weather : Europe Africa North America South America Asia Australia-Oceania Others
Satellite images 15-day forecastsClimateMarine weather Cyclones Lightning AirportsFAQ Languages Contact Newsletter About